sensor_id;sensor_type;location;lat;lon;timestamp;P1;durP1;ratioP1;P2;durP2;ratioP2
15086;SDS011;7642;48.478;8.952;2022-08-03T00:01:22;3.30;;;2.63;;
15086;SDS011;7642;48.478;8.952;2022-08-03T00:03:48;2.92;;;2.63;;
15086;SDS011;7642;48.478;8.952;2022-08-03T00:06:13;2.92;;;2.60;;
15086;SDS011;7642;48.478;8.952;2022-08-03T00:08:39;3.63;;;2.65;;
15086;SDS011;7642;48.478;8.952;2022-08-03T00:11:04;3.65;;;2.72;;
15086;SDS011;7642;48.478;8.952;2022-08-03T00:13:31;2.95;;;2.47;;
15086;SDS011;7642;48.478;8.952;2022-08-03T00:15:57;3.22;;;2.80;;
15086;SDS011;7642;48.478;8.952;2022-08-03T00:18:23;4.38;;;2.60;;
15086;SDS011;7642;48.478;8.952;2022-08-03T00:20:49;4.07;;;2.78;;
15086;SDS011;7642;48.478;8.952;2022-08-03T00:23:15;3.38;;;3.08;;
15086;SDS011;7642;48.478;8.952;2022-08-03T00:25:40;3.25;;;2.58;;
15086;SDS011;7642;48.478;8.952;2022-08-03T00:28:06;3.70;;;2.70;;
15086;SDS011;7642;48.478;8.952;2022-08-03T00:30:32;5.75;;;2.90;;
15086;SDS011;7642;48.478;8.952;2022-08-03T00:32:58;3.05;;;2.58;;
15086;SDS011;7642;48.478;8.952;2022-08-03T00:35:24;4.43;;;3.00;;
15086;SDS011;7642;48.478;8.952;2022-08-03T00:37:50;3.13;;;2.70;;
15086;SDS011;7642;48.478;8.952;2022-08-03T00:40:17;3.53;;;2.75;;
15086;SDS011;7642;48.478;8.952;2022-08-03T00:45:12;3.67;;;2.95;;
15086;SDS011;7642;48.478;8.952;2022-08-03T00:47:38;3.80;;;2.60;;
15086;SDS011;7642;48.478;8.952;2022-08-03T00:50:04;2.60;;;2.38;;
15086;SDS011;7642;48.478;8.952;2022-08-03T00:52:30;4.50;;;3.00;;
15086;SDS011;7642;48.478;8.952;2022-08-03T00:54:55;3.22;;;2.92;;
15086;SDS011;7642;48.478;8.952;2022-08-03T00:57:21;3.38;;;3.03;;
15086;SDS011;7642;48.478;8.952;2022-08-03T00:59:47;3.10;;;2.60;;
15086;SDS011;7642;48.478;8.952;2022-08-03T01:02:12;3.03;;;2.72;;
15086;SDS011;7642;48.478;8.952;2022-08-03T01:04:38;2.65;;;2.22;;
15086;SDS011;7642;48.478;8.952;2022-08-03T01:07:05;2.90;;;2.38;;
15086;SDS011;7642;48.478;8.952;2022-08-03T01:09:37;4.97;;;3.00;;
15086;SDS011;7642;48.478;8.952;2022-08-03T01:12:34;3.97;;;2.90;;
15086;SDS011;7642;48.478;8.952;2022-08-03T01:15:14;3.22;;;2.47;;
15086;SDS011;7642;48.478;8.952;2022-08-03T01:17:55;4.65;;;2.65;;
15086;SDS011;7642;48.478;8.952;2022-08-03T01:20:26;2.65;;;2.30;;
15086;SDS011;7642;48.478;8.952;2022-08-03T01:30:47;2.95;;;2.30;;
15086;SDS011;7642;48.478;8.952;2022-08-03T01:33:18;3.20;;;2.90;;
15086;SDS011;7642;48.478;8.952;2022-08-03T01:35:53;3.42;;;2.00;;
15086;SDS011;7642;48.478;8.952;2022-08-03T01:41:24;3.95;;;2.40;;
15086;SDS011;7642;48.478;8.952;2022-08-03T01:43:55;3.17;;;2.78;;
15086;SDS011;7642;48.478;8.952;2022-08-03T01:46:23;5.68;;;3.25;;
15086;SDS011;7642;48.478;8.952;2022-08-03T01:48:50;3.75;;;3.00;;
15086;SDS011;7642;48.478;8.952;2022-08-03T01:51:18;3.17;;;2.88;;
15086;SDS011;7642;48.478;8.952;2022-08-03T01:53:44;3.13;;;2.83;;
15086;SDS011;7642;48.478;8.952;2022-08-03T01:56:13;3.83;;;2.65;;
15086;SDS011;7642;48.478;8.952;2022-08-03T01:58:41;3.15;;;2.80;;
15086;SDS011;7642;48.478;8.952;2022-08-03T02:01:10;5.15;;;2.80;;
15086;SDS011;7642;48.478;8.952;2022-08-03T02:03:38;4.97;;;2.65;;
15086;SDS011;7642;48.478;8.952;2022-08-03T02:06:06;2.85;;;2.28;;
15086;SDS011;7642;48.478;8.952;2022-08-03T02:08:36;3.03;;;2.72;;
15086;SDS011;7642;48.478;8.952;2022-08-03T02:11:03;4.95;;;2.72;;
15086;SDS011;7642;48.478;8.952;2022-08-03T02:13:30;3.42;;;2.42;;
15086;SDS011;7642;48.478;8.952;2022-08-03T02:15:58;5.78;;;2.75;;
15086;SDS011;7642;48.478;8.952;2022-08-03T02:18:24;3.72;;;3.17;;
15086;SDS011;7642;48.478;8.952;2022-08-03T02:20:50;3.92;;;2.95;;
15086;SDS011;7642;48.478;8.952;2022-08-03T02:23:16;4.18;;;2.67;;
15086;SDS011;7642;48.478;8.952;2022-08-03T02:25:46;3.70;;;3.08;;
15086;SDS011;7642;48.478;8.952;2022-08-03T02:28:21;4.50;;;2.92;;
15086;SDS011;7642;48.478;8.952;2022-08-03T02:30:52;3.83;;;2.72;;
15086;SDS011;7642;48.478;8.952;2022-08-03T02:33:27;4.38;;;3.30;;
15086;SDS011;7642;48.478;8.952;2022-08-03T02:35:58;4.20;;;3.20;;
15086;SDS011;7642;48.478;8.952;2022-08-03T02:38:27;4.65;;;3.47;;
15086;SDS011;7642;48.478;8.952;2022-08-03T02:40:57;3.78;;;2.85;;
15086;SDS011;7642;48.478;8.952;2022-08-03T02:43:25;3.00;;;2.80;;
15086;SDS011;7642;48.478;8.952;2022-08-03T02:45:54;2.95;;;2.65;;
15086;SDS011;7642;48.478;8.952;2022-08-03T02:48:20;2.67;;;2.42;;
15086;SDS011;7642;48.478;8.952;2022-08-03T02:50:50;3.72;;;2.83;;
15086;SDS011;7642;48.478;8.952;2022-08-03T02:53:17;3.20;;;2.42;;
15086;SDS011;7642;48.478;8.952;2022-08-03T02:55:45;4.05;;;2.88;;
15086;SDS011;7642;48.478;8.952;2022-08-03T02:58:12;5.93;;;2.67;;
15086;SDS011;7642;48.478;8.952;2022-08-03T03:00:41;3.47;;;2.50;;
15086;SDS011;7642;48.478;8.952;2022-08-03T03:03:08;3.97;;;2.90;;
15086;SDS011;7642;48.478;8.952;2022-08-03T03:05:35;3.45;;;2.92;;
15086;SDS011;7642;48.478;8.952;2022-08-03T03:08:02;3.88;;;2.58;;
15086;SDS011;7642;48.478;8.952;2022-08-03T03:10:28;3.45;;;2.85;;
15086;SDS011;7642;48.478;8.952;2022-08-03T03:12:54;3.40;;;3.00;;
15086;SDS011;7642;48.478;8.952;2022-08-03T03:15:25;3.15;;;2.85;;
15086;SDS011;7642;48.478;8.952;2022-08-03T03:17:52;3.25;;;2.75;;
15086;SDS011;7642;48.478;8.952;2022-08-03T03:20:20;2.60;;;2.40;;
15086;SDS011;7642;48.478;8.952;2022-08-03T03:22:47;2.60;;;2.40;;
15086;SDS011;7642;48.478;8.952;2022-08-03T03:25:14;3.55;;;2.70;;
15086;SDS011;7642;48.478;8.952;2022-08-03T03:27:40;8.48;;;3.55;;
15086;SDS011;7642;48.478;8.952;2022-08-03T03:30:07;3.38;;;2.78;;
15086;SDS011;7642;48.478;8.952;2022-08-03T03:32:33;3.15;;;2.60;;
15086;SDS011;7642;48.478;8.952;2022-08-03T03:35:00;3.88;;;2.92;;
15086;SDS011;7642;48.478;8.952;2022-08-03T03:37:26;3.30;;;2.97;;
15086;SDS011;7642;48.478;8.952;2022-08-03T03:39:52;2.55;;;2.35;;
15086;SDS011;7642;48.478;8.952;2022-08-03T03:42:18;2.90;;;2.47;;
15086;SDS011;7642;48.478;8.952;2022-08-03T03:44:45;3.22;;;2.92;;
15086;SDS011;7642;48.478;8.952;2022-08-03T03:47:10;3.10;;;2.80;;
15086;SDS011;7642;48.478;8.952;2022-08-03T03:49:36;3.78;;;2.83;;
15086;SDS011;7642;48.478;8.952;2022-08-03T03:52:03;3.47;;;2.90;;
15086;SDS011;7642;48.478;8.952;2022-08-03T03:54:41;3.65;;;2.83;;
15086;SDS011;7642;48.478;8.952;2022-08-03T03:57:09;2.70;;;2.47;;
15086;SDS011;7642;48.478;8.952;2022-08-03T03:59:36;3.30;;;2.97;;
15086;SDS011;7642;48.478;8.952;2022-08-03T04:02:03;3.47;;;2.63;;
15086;SDS011;7642;48.478;8.952;2022-08-03T04:04:30;4.07;;;3.30;;
15086;SDS011;7642;48.478;8.952;2022-08-03T04:07:18;3.10;;;2.80;;
15086;SDS011;7642;48.478;8.952;2022-08-03T04:10:04;4.20;;;2.95;;
15086;SDS011;7642;48.478;8.952;2022-08-03T04:12:59;3.17;;;2.70;;
15086;SDS011;7642;48.478;8.952;2022-08-03T04:15:26;4.60;;;2.75;;
15086;SDS011;7642;48.478;8.952;2022-08-03T04:17:53;3.17;;;2.92;;
15086;SDS011;7642;48.478;8.952;2022-08-03T04:20:21;4.03;;;3.20;;
15086;SDS011;7642;48.478;8.952;2022-08-03T04:22:50;4.05;;;2.83;;
15086;SDS011;7642;48.478;8.952;2022-08-03T04:25:18;3.92;;;3.17;;
15086;SDS011;7642;48.478;8.952;2022-08-03T04:27:47;3.55;;;2.70;;
15086;SDS011;7642;48.478;8.952;2022-08-03T04:30:14;3.08;;;2.60;;
15086;SDS011;7642;48.478;8.952;2022-08-03T04:32:40;4.78;;;3.13;;
15086;SDS011;7642;48.478;8.952;2022-08-03T04:35:09;3.97;;;3.55;;
15086;SDS011;7642;48.478;8.952;2022-08-03T04:37:39;4.00;;;2.38;;
15086;SDS011;7642;48.478;8.952;2022-08-03T04:40:08;3.25;;;2.80;;
15086;SDS011;7642;48.478;8.952;2022-08-03T04:42:37;3.25;;;2.95;;
15086;SDS011;7642;48.478;8.952;2022-08-03T04:45:04;5.35;;;3.65;;
15086;SDS011;7642;48.478;8.952;2022-08-03T04:47:31;8.48;;;3.42;;
15086;SDS011;7642;48.478;8.952;2022-08-03T04:49:59;4.13;;;3.05;;
15086;SDS011;7642;48.478;8.952;2022-08-03T04:52:28;6.25;;;2.80;;
15086;SDS011;7642;48.478;8.952;2022-08-03T04:54:54;3.78;;;3.33;;
15086;SDS011;7642;48.478;8.952;2022-08-03T04:57:20;6.15;;;3.22;;
15086;SDS011;7642;48.478;8.952;2022-08-03T04:59:46;4.95;;;3.28;;
15086;SDS011;7642;48.478;8.952;2022-08-03T05:02:13;7.80;;;3.58;;
15086;SDS011;7642;48.478;8.952;2022-08-03T05:04:40;2.65;;;2.30;;
15086;SDS011;7642;48.478;8.952;2022-08-03T05:07:10;4.22;;;3.40;;
15086;SDS011;7642;48.478;8.952;2022-08-03T05:09:39;4.80;;;3.15;;
15086;SDS011;7642;48.478;8.952;2022-08-03T05:12:05;5.22;;;3.50;;
15086;SDS011;7642;48.478;8.952;2022-08-03T05:14:31;4.35;;;3.28;;
15086;SDS011;7642;48.478;8.952;2022-08-03T05:16:57;4.63;;;3.45;;
15086;SDS011;7642;48.478;8.952;2022-08-03T05:19:23;6.30;;;3.33;;
15086;SDS011;7642;48.478;8.952;2022-08-03T05:21:48;4.13;;;3.55;;
15086;SDS011;7642;48.478;8.952;2022-08-03T05:24:14;5.82;;;3.75;;
15086;SDS011;7642;48.478;8.952;2022-08-03T05:26:40;4.72;;;3.10;;
15086;SDS011;7642;48.478;8.952;2022-08-03T05:29:05;3.50;;;3.00;;
15086;SDS011;7642;48.478;8.952;2022-08-03T05:31:31;14.50;;;4.93;;
15086;SDS011;7642;48.478;8.952;2022-08-03T05:33:56;9.52;;;3.78;;
15086;SDS011;7642;48.478;8.952;2022-08-03T05:36:22;3.42;;;3.13;;
15086;SDS011;7642;48.478;8.952;2022-08-03T05:38:48;4.75;;;2.97;;
15086;SDS011;7642;48.478;8.952;2022-08-03T05:41:13;2.90;;;2.60;;
15086;SDS011;7642;48.478;8.952;2022-08-03T05:43:39;4.80;;;3.70;;
15086;SDS011;7642;48.478;8.952;2022-08-03T05:46:05;5.25;;;3.13;;
15086;SDS011;7642;48.478;8.952;2022-08-03T05:48:31;3.65;;;2.80;;
15086;SDS011;7642;48.478;8.952;2022-08-03T05:50:56;4.18;;;3.30;;
15086;SDS011;7642;48.478;8.952;2022-08-03T05:53:22;5.03;;;3.15;;
15086;SDS011;7642;48.478;8.952;2022-08-03T05:55:47;4.15;;;3.15;;
15086;SDS011;7642;48.478;8.952;2022-08-03T05:58:13;3.28;;;2.63;;
15086;SDS011;7642;48.478;8.952;2022-08-03T06:00:39;3.40;;;3.10;;
15086;SDS011;7642;48.478;8.952;2022-08-03T06:03:04;3.28;;;2.97;;
15086;SDS011;7642;48.478;8.952;2022-08-03T06:05:30;2.95;;;2.55;;
15086;SDS011;7642;48.478;8.952;2022-08-03T06:07:56;4.15;;;2.70;;
15086;SDS011;7642;48.478;8.952;2022-08-03T06:10:22;3.55;;;2.78;;
15086;SDS011;7642;48.478;8.952;2022-08-03T06:12:47;3.38;;;2.70;;
15086;SDS011;7642;48.478;8.952;2022-08-03T06:15:14;3.38;;;2.60;;
15086;SDS011;7642;48.478;8.952;2022-08-03T06:17:47;4.53;;;2.90;;
15086;SDS011;7642;48.478;8.952;2022-08-03T06:20:17;3.08;;;2.42;;
15086;SDS011;7642;48.478;8.952;2022-08-03T06:22:44;5.90;;;3.08;;
15086;SDS011;7642;48.478;8.952;2022-08-03T06:25:10;3.58;;;2.95;;
15086;SDS011;7642;48.478;8.952;2022-08-03T06:27:36;4.30;;;3.00;;
15086;SDS011;7642;48.478;8.952;2022-08-03T06:30:07;6.20;;;3.20;;
15086;SDS011;7642;48.478;8.952;2022-08-03T06:32:37;3.03;;;2.72;;
15086;SDS011;7642;48.478;8.952;2022-08-03T06:35:06;3.58;;;3.10;;
15086;SDS011;7642;48.478;8.952;2022-08-03T06:37:46;4.38;;;3.28;;
15086;SDS011;7642;48.478;8.952;2022-08-03T06:40:14;3.88;;;3.47;;
15086;SDS011;7642;48.478;8.952;2022-08-03T06:42:44;3.30;;;2.72;;
15086;SDS011;7642;48.478;8.952;2022-08-03T06:45:10;3.53;;;3.15;;
15086;SDS011;7642;48.478;8.952;2022-08-03T06:47:36;4.30;;;3.22;;
15086;SDS011;7642;48.478;8.952;2022-08-03T06:50:03;6.40;;;2.88;;
15086;SDS011;7642;48.478;8.952;2022-08-03T06:52:30;3.10;;;2.80;;
15086;SDS011;7642;48.478;8.952;2022-08-03T06:54:57;4.38;;;2.53;;
15086;SDS011;7642;48.478;8.952;2022-08-03T06:57:23;3.40;;;3.10;;
15086;SDS011;7642;48.478;8.952;2022-08-03T06:59:49;3.95;;;3.05;;
15086;SDS011;7642;48.478;8.952;2022-08-03T07:02:14;3.33;;;2.78;;
15086;SDS011;7642;48.478;8.952;2022-08-03T07:04:40;3.40;;;3.08;;
15086;SDS011;7642;48.478;8.952;2022-08-03T07:07:06;3.72;;;3.30;;
15086;SDS011;7642;48.478;8.952;2022-08-03T07:09:31;3.17;;;2.60;;
15086;SDS011;7642;48.478;8.952;2022-08-03T07:11:57;3.30;;;2.60;;
15086;SDS011;7642;48.478;8.952;2022-08-03T07:14:23;4.38;;;2.47;;
15086;SDS011;7642;48.478;8.952;2022-08-03T07:16:48;2.90;;;2.38;;
15086;SDS011;7642;48.478;8.952;2022-08-03T07:19:14;3.97;;;3.20;;
15086;SDS011;7642;48.478;8.952;2022-08-03T07:21:40;2.80;;;2.60;;
15086;SDS011;7642;48.478;8.952;2022-08-03T07:24:05;3.65;;;2.70;;
15086;SDS011;7642;48.478;8.952;2022-08-03T07:26:31;3.90;;;2.70;;
15086;SDS011;7642;48.478;8.952;2022-08-03T07:28:57;5.63;;;3.50;;
15086;SDS011;7642;48.478;8.952;2022-08-03T07:31:24;4.00;;;3.10;;
15086;SDS011;7642;48.478;8.952;2022-08-03T07:33:50;3.13;;;2.83;;
15086;SDS011;7642;48.478;8.952;2022-08-03T07:36:15;3.33;;;3.00;;
15086;SDS011;7642;48.478;8.952;2022-08-03T07:38:41;2.78;;;2.58;;
15086;SDS011;7642;48.478;8.952;2022-08-03T07:41:07;3.40;;;3.10;;
15086;SDS011;7642;48.478;8.952;2022-08-03T07:43:32;3.55;;;3.25;;
15086;SDS011;7642;48.478;8.952;2022-08-03T07:45:58;5.07;;;2.50;;
15086;SDS011;7642;48.478;8.952;2022-08-03T07:48:23;3.63;;;2.55;;
15086;SDS011;7642;48.478;8.952;2022-08-03T07:50:49;3.33;;;2.58;;
15086;SDS011;7642;48.478;8.952;2022-08-03T07:53:15;3.28;;;2.70;;
15086;SDS011;7642;48.478;8.952;2022-08-03T07:55:41;4.50;;;2.95;;
15086;SDS011;7642;48.478;8.952;2022-08-03T07:58:07;4.45;;;3.05;;
15086;SDS011;7642;48.478;8.952;2022-08-03T08:00:36;3.22;;;2.92;;
15086;SDS011;7642;48.478;8.952;2022-08-03T08:03:02;3.58;;;2.45;;
15086;SDS011;7642;48.478;8.952;2022-08-03T08:05:29;5.32;;;2.40;;
15086;SDS011;7642;48.478;8.952;2022-08-03T08:07:54;3.45;;;2.40;;
15086;SDS011;7642;48.478;8.952;2022-08-03T08:10:20;5.68;;;2.97;;
15086;SDS011;7642;48.478;8.952;2022-08-03T08:12:46;3.13;;;2.25;;
15086;SDS011;7642;48.478;8.952;2022-08-03T08:15:12;2.67;;;2.47;;
15086;SDS011;7642;48.478;8.952;2022-08-03T08:17:44;3.55;;;2.25;;
15086;SDS011;7642;48.478;8.952;2022-08-03T08:20:14;2.38;;;2.17;;
15086;SDS011;7642;48.478;8.952;2022-08-03T08:22:42;2.80;;;2.15;;
15086;SDS011;7642;48.478;8.952;2022-08-03T08:25:08;2.30;;;2.10;;
15086;SDS011;7642;48.478;8.952;2022-08-03T08:27:39;2.78;;;1.90;;
15086;SDS011;7642;48.478;8.952;2022-08-03T08:30:14;2.10;;;1.90;;
15086;SDS011;7642;48.478;8.952;2022-08-03T08:32:42;2.85;;;2.03;;
15086;SDS011;7642;48.478;8.952;2022-08-03T08:35:09;4.03;;;2.15;;
15086;SDS011;7642;48.478;8.952;2022-08-03T08:37:36;2.03;;;1.83;;
15086;SDS011;7642;48.478;8.952;2022-08-03T08:40:02;2.42;;;2.05;;
15086;SDS011;7642;48.478;8.952;2022-08-03T08:42:29;2.42;;;2.08;;
15086;SDS011;7642;48.478;8.952;2022-08-03T08:44:56;2.13;;;1.77;;
15086;SDS011;7642;48.478;8.952;2022-08-03T08:47:23;2.20;;;1.67;;
15086;SDS011;7642;48.478;8.952;2022-08-03T08:49:53;1.70;;;1.60;;
15086;SDS011;7642;48.478;8.952;2022-08-03T08:52:26;2.75;;;1.73;;
15086;SDS011;7642;48.478;8.952;2022-08-03T08:54:55;1.70;;;1.60;;
15086;SDS011;7642;48.478;8.952;2022-08-03T08:57:28;1.80;;;1.50;;
15086;SDS011;7642;48.478;8.952;2022-08-03T08:59:57;1.73;;;1.63;;
15086;SDS011;7642;48.478;8.952;2022-08-03T09:02:27;2.42;;;1.60;;
15086;SDS011;7642;48.478;8.952;2022-08-03T09:04:54;2.20;;;1.65;;
15086;SDS011;7642;48.478;8.952;2022-08-03T09:07:21;2.58;;;1.63;;
15086;SDS011;7642;48.478;8.952;2022-08-03T09:09:47;1.63;;;1.52;;
15086;SDS011;7642;48.478;8.952;2022-08-03T09:12:13;2.42;;;1.70;;
15086;SDS011;7642;48.478;8.952;2022-08-03T09:14:39;1.92;;;1.42;;
15086;SDS011;7642;48.478;8.952;2022-08-03T09:17:05;1.88;;;1.48;;
15086;SDS011;7642;48.478;8.952;2022-08-03T09:19:32;1.48;;;1.38;;
15086;SDS011;7642;48.478;8.952;2022-08-03T09:24:38;1.98;;;1.60;;
15086;SDS011;7642;48.478;8.952;2022-08-03T09:27:19;1.33;;;1.10;;
15086;SDS011;7642;48.478;8.952;2022-08-03T09:29:46;2.00;;;1.30;;
15086;SDS011;7642;48.478;8.952;2022-08-03T09:32:13;3.33;;;1.42;;
15086;SDS011;7642;48.478;8.952;2022-08-03T09:34:39;1.67;;;1.25;;
15086;SDS011;7642;48.478;8.952;2022-08-03T09:37:13;2.33;;;1.40;;
15086;SDS011;7642;48.478;8.952;2022-08-03T09:39:40;1.70;;;1.60;;
15086;SDS011;7642;48.478;8.952;2022-08-03T09:42:07;2.78;;;1.40;;
15086;SDS011;7642;48.478;8.952;2022-08-03T09:44:35;1.50;;;1.20;;
15086;SDS011;7642;48.478;8.952;2022-08-03T09:47:02;2.00;;;1.33;;
15086;SDS011;7642;48.478;8.952;2022-08-03T09:49:29;2.10;;;0.95;;
15086;SDS011;7642;48.478;8.952;2022-08-03T09:51:55;1.60;;;1.23;;
15086;SDS011;7642;48.478;8.952;2022-08-03T09:54:25;1.35;;;1.13;;
15086;SDS011;7642;48.478;8.952;2022-08-03T09:56:55;3.03;;;1.15;;
15086;SDS011;7642;48.478;8.952;2022-08-03T09:59:27;1.92;;;1.33;;
15086;SDS011;7642;48.478;8.952;2022-08-03T10:01:55;1.05;;;0.95;;
15086;SDS011;7642;48.478;8.952;2022-08-03T10:04:22;1.23;;;1.13;;
15086;SDS011;7642;48.478;8.952;2022-08-03T10:07:04;1.00;;;0.82;;
15086;SDS011;7642;48.478;8.952;2022-08-03T10:09:32;5.68;;;1.25;;
15086;SDS011;7642;48.478;8.952;2022-08-03T10:12:05;1.45;;;1.35;;
15086;SDS011;7642;48.478;8.952;2022-08-03T10:14:36;1.42;;;1.10;;
15086;SDS011;7642;48.478;8.952;2022-08-03T10:17:03;1.13;;;0.95;;
15086;SDS011;7642;48.478;8.952;2022-08-03T10:19:28;1.35;;;1.10;;
15086;SDS011;7642;48.478;8.952;2022-08-03T10:21:55;2.08;;;0.90;;
15086;SDS011;7642;48.478;8.952;2022-08-03T10:24:24;1.17;;;1.08;;
15086;SDS011;7642;48.478;8.952;2022-08-03T10:26:51;1.17;;;1.08;;
15086;SDS011;7642;48.478;8.952;2022-08-03T10:29:24;1.35;;;1.13;;
15086;SDS011;7642;48.478;8.952;2022-08-03T10:31:53;2.05;;;1.10;;
15086;SDS011;7642;48.478;8.952;2022-08-03T10:34:22;2.05;;;0.98;;
15086;SDS011;7642;48.478;8.952;2022-08-03T10:36:50;1.80;;;1.10;;
15086;SDS011;7642;48.478;8.952;2022-08-03T10:39:21;1.25;;;1.15;;
15086;SDS011;7642;48.478;8.952;2022-08-03T10:41:48;1.50;;;1.00;;
15086;SDS011;7642;48.478;8.952;2022-08-03T10:44:17;3.00;;;1.25;;
15086;SDS011;7642;48.478;8.952;2022-08-03T10:46:44;1.48;;;1.00;;
15086;SDS011;7642;48.478;8.952;2022-08-03T10:49:13;0.90;;;0.90;;
15086;SDS011;7642;48.478;8.952;2022-08-03T10:51:40;1.20;;;1.10;;
15086;SDS011;7642;48.478;8.952;2022-08-03T10:57:42;1.10;;;0.90;;
15086;SDS011;7642;48.478;8.952;2022-08-03T11:00:08;0.68;;;0.68;;
15086;SDS011;7642;48.478;8.952;2022-08-03T11:05:42;0.95;;;0.85;;
15086;SDS011;7642;48.478;8.952;2022-08-03T11:10:46;1.35;;;0.95;;
15086;SDS011;7642;48.478;8.952;2022-08-03T11:13:14;1.10;;;0.98;;
15086;SDS011;7642;48.478;8.952;2022-08-03T11:15:42;1.48;;;0.90;;
15086;SDS011;7642;48.478;8.952;2022-08-03T11:18:10;2.05;;;1.02;;
15086;SDS011;7642;48.478;8.952;2022-08-03T11:20:44;1.20;;;1.10;;
15086;SDS011;7642;48.478;8.952;2022-08-03T11:23:15;1.20;;;1.10;;
15086;SDS011;7642;48.478;8.952;2022-08-03T11:28:40;1.15;;;1.00;;
15086;SDS011;7642;48.478;8.952;2022-08-03T11:34:04;1.20;;;1.10;;
15086;SDS011;7642;48.478;8.952;2022-08-03T11:37:16;2.25;;;1.15;;
15086;SDS011;7642;48.478;8.952;2022-08-03T11:39:39;3.60;;;1.00;;
15086;SDS011;7642;48.478;8.952;2022-08-03T11:42:36;1.00;;;0.90;;
15086;SDS011;7642;48.478;8.952;2022-08-03T11:44:57;1.02;;;0.90;;
15086;SDS011;7642;48.478;8.952;2022-08-03T11:47:25;1.05;;;0.93;;
15086;SDS011;7642;48.478;8.952;2022-08-03T11:49:58;1.17;;;1.10;;
15086;SDS011;7642;48.478;8.952;2022-08-03T11:52:26;2.13;;;1.25;;
15086;SDS011;7642;48.478;8.952;2022-08-03T11:54:57;1.00;;;0.80;;
15086;SDS011;7642;48.478;8.952;2022-08-03T11:57:30;3.10;;;1.27;;
15086;SDS011;7642;48.478;8.952;2022-08-03T11:59:57;1.05;;;0.90;;
15086;SDS011;7642;48.478;8.952;2022-08-03T12:02:23;1.48;;;0.90;;
15086;SDS011;7642;48.478;8.952;2022-08-03T12:04:52;1.45;;;1.27;;
15086;SDS011;7642;48.478;8.952;2022-08-03T12:07:22;1.75;;;1.08;;
15086;SDS011;7642;48.478;8.952;2022-08-03T12:12:34;1.67;;;1.10;;
15086;SDS011;7642;48.478;8.952;2022-08-03T12:14:59;1.40;;;1.02;;
15086;SDS011;7642;48.478;8.952;2022-08-03T12:17:35;1.17;;;1.08;;
15086;SDS011;7642;48.478;8.952;2022-08-03T12:20:02;1.35;;;0.80;;
15086;SDS011;7642;48.478;8.952;2022-08-03T12:22:34;1.27;;;0.90;;
15086;SDS011;7642;48.478;8.952;2022-08-03T12:25:01;0.85;;;0.85;;
15086;SDS011;7642;48.478;8.952;2022-08-03T12:27:28;1.05;;;0.93;;
15086;SDS011;7642;48.478;8.952;2022-08-03T12:29:54;0.80;;;0.77;;
15086;SDS011;7642;48.478;8.952;2022-08-03T12:32:21;1.40;;;1.13;;
15086;SDS011;7642;48.478;8.952;2022-08-03T12:34:48;2.38;;;1.65;;
15086;SDS011;7642;48.478;8.952;2022-08-03T12:37:18;1.05;;;0.88;;
15086;SDS011;7642;48.478;8.952;2022-08-03T12:39:52;1.10;;;1.00;;
15086;SDS011;7642;48.478;8.952;2022-08-03T12:42:19;0.85;;;0.82;;
15086;SDS011;7642;48.478;8.952;2022-08-03T12:44:44;0.82;;;0.82;;
15086;SDS011;7642;48.478;8.952;2022-08-03T12:47:12;1.38;;;1.00;;
15086;SDS011;7642;48.478;8.952;2022-08-03T12:49:46;1.23;;;1.02;;
15086;SDS011;7642;48.478;8.952;2022-08-03T12:52:18;1.20;;;1.10;;
15086;SDS011;7642;48.478;8.952;2022-08-03T12:57:22;1.33;;;1.10;;
15086;SDS011;7642;48.478;8.952;2022-08-03T12:59:47;2.38;;;0.90;;
15086;SDS011;7642;48.478;8.952;2022-08-03T13:02:17;0.80;;;0.80;;
15086;SDS011;7642;48.478;8.952;2022-08-03T13:04:44;1.48;;;1.13;;
15086;SDS011;7642;48.478;8.952;2022-08-03T13:07:11;3.10;;;1.25;;
15086;SDS011;7642;48.478;8.952;2022-08-03T13:09:41;0.93;;;0.80;;
15086;SDS011;7642;48.478;8.952;2022-08-03T13:12:21;2.08;;;1.00;;
15086;SDS011;7642;48.478;8.952;2022-08-03T13:14:49;1.20;;;1.10;;
15086;SDS011;7642;48.478;8.952;2022-08-03T13:17:19;1.25;;;1.00;;
15086;SDS011;7642;48.478;8.952;2022-08-03T13:19:45;3.00;;;1.48;;
15086;SDS011;7642;48.478;8.952;2022-08-03T13:22:12;1.85;;;1.23;;
15086;SDS011;7642;48.478;8.952;2022-08-03T13:24:43;1.27;;;1.15;;
15086;SDS011;7642;48.478;8.952;2022-08-03T13:27:10;1.20;;;0.90;;
15086;SDS011;7642;48.478;8.952;2022-08-03T13:29:36;0.93;;;0.93;;
15086;SDS011;7642;48.478;8.952;2022-08-03T13:32:02;1.20;;;1.10;;
15086;SDS011;7642;48.478;8.952;2022-08-03T13:34:28;1.23;;;1.05;;
15086;SDS011;7642;48.478;8.952;2022-08-03T13:36:55;1.30;;;1.00;;
15086;SDS011;7642;48.478;8.952;2022-08-03T13:39:21;0.73;;;0.73;;
15086;SDS011;7642;48.478;8.952;2022-08-03T13:41:46;1.20;;;1.10;;
15086;SDS011;7642;48.478;8.952;2022-08-03T13:44:13;2.47;;;1.00;;
15086;SDS011;7642;48.478;8.952;2022-08-03T13:46:39;1.17;;;1.08;;
15086;SDS011;7642;48.478;8.952;2022-08-03T13:49:05;1.33;;;1.10;;
15086;SDS011;7642;48.478;8.952;2022-08-03T13:51:31;1.50;;;0.93;;
15086;SDS011;7642;48.478;8.952;2022-08-03T13:53:57;1.05;;;0.95;;
15086;SDS011;7642;48.478;8.952;2022-08-03T13:56:24;1.85;;;1.05;;
15086;SDS011;7642;48.478;8.952;2022-08-03T13:58:50;7.28;;;2.08;;
15086;SDS011;7642;48.478;8.952;2022-08-03T14:01:15;1.55;;;0.98;;
15086;SDS011;7642;48.478;8.952;2022-08-03T14:03:41;3.55;;;1.02;;
15086;SDS011;7642;48.478;8.952;2022-08-03T14:06:07;1.00;;;0.90;;
15086;SDS011;7642;48.478;8.952;2022-08-03T14:08:32;1.90;;;0.98;;
15086;SDS011;7642;48.478;8.952;2022-08-03T14:10:58;3.55;;;1.67;;
15086;SDS011;7642;48.478;8.952;2022-08-03T14:13:24;1.63;;;1.00;;
15086;SDS011;7642;48.478;8.952;2022-08-03T14:15:49;1.20;;;1.08;;
15086;SDS011;7642;48.478;8.952;2022-08-03T14:18:16;3.10;;;1.10;;
15086;SDS011;7642;48.478;8.952;2022-08-03T14:20:43;2.75;;;0.90;;
15086;SDS011;7642;48.478;8.952;2022-08-03T14:23:09;1.75;;;1.15;;
15086;SDS011;7642;48.478;8.952;2022-08-03T14:25:35;1.88;;;0.98;;
15086;SDS011;7642;48.478;8.952;2022-08-03T14:28:00;1.13;;;1.02;;
15086;SDS011;7642;48.478;8.952;2022-08-03T14:30:26;1.25;;;1.15;;
15086;SDS011;7642;48.478;8.952;2022-08-03T14:32:51;1.40;;;1.00;;
15086;SDS011;7642;48.478;8.952;2022-08-03T14:35:17;1.60;;;1.08;;
15086;SDS011;7642;48.478;8.952;2022-08-03T14:37:42;0.98;;;0.88;;
15086;SDS011;7642;48.478;8.952;2022-08-03T14:40:08;1.20;;;1.10;;
15086;SDS011;7642;48.478;8.952;2022-08-03T14:42:34;1.42;;;0.90;;
15086;SDS011;7642;48.478;8.952;2022-08-03T14:44:59;1.83;;;1.00;;
15086;SDS011;7642;48.478;8.952;2022-08-03T14:47:25;1.13;;;1.02;;
15086;SDS011;7642;48.478;8.952;2022-08-03T14:49:50;1.02;;;0.88;;
15086;SDS011;7642;48.478;8.952;2022-08-03T14:52:16;1.13;;;1.02;;
15086;SDS011;7642;48.478;8.952;2022-08-03T14:54:42;0.80;;;0.80;;
15086;SDS011;7642;48.478;8.952;2022-08-03T14:57:09;1.08;;;0.98;;
15086;SDS011;7642;48.478;8.952;2022-08-03T14:59:34;1.30;;;1.20;;
15086;SDS011;7642;48.478;8.952;2022-08-03T15:02:00;1.60;;;1.50;;
15086;SDS011;7642;48.478;8.952;2022-08-03T15:04:25;1.65;;;0.85;;
15086;SDS011;7642;48.478;8.952;2022-08-03T15:06:51;1.35;;;1.02;;
15086;SDS011;7642;48.478;8.952;2022-08-03T15:09:16;1.25;;;1.08;;
15086;SDS011;7642;48.478;8.952;2022-08-03T15:11:42;2.17;;;1.05;;
15086;SDS011;7642;48.478;8.952;2022-08-03T15:14:08;1.05;;;0.95;;
15086;SDS011;7642;48.478;8.952;2022-08-03T15:16:34;1.50;;;1.10;;
15086;SDS011;7642;48.478;8.952;2022-08-03T15:18:59;1.20;;;1.10;;
15086;SDS011;7642;48.478;8.952;2022-08-03T15:21:25;3.40;;;0.95;;
15086;SDS011;7642;48.478;8.952;2022-08-03T15:23:51;2.22;;;1.00;;
15086;SDS011;7642;48.478;8.952;2022-08-03T15:26:18;1.08;;;1.00;;
15086;SDS011;7642;48.478;8.952;2022-08-03T15:28:43;1.15;;;1.05;;
15086;SDS011;7642;48.478;8.952;2022-08-03T15:31:09;0.80;;;0.80;;
15086;SDS011;7642;48.478;8.952;2022-08-03T15:33:34;3.40;;;1.38;;
15086;SDS011;7642;48.478;8.952;2022-08-03T15:36:01;0.93;;;0.82;;
15086;SDS011;7642;48.478;8.952;2022-08-03T15:38:27;1.35;;;1.05;;
15086;SDS011;7642;48.478;8.952;2022-08-03T15:40:53;1.25;;;0.77;;